createdAt,value
2023-02-14T00:01:01.592Z,26.00
2023-02-14T00:03:28.344Z,24.88
2023-02-14T00:05:55.117Z,26.80
2023-02-14T00:08:28.601Z,23.40
2023-02-14T00:10:55.355Z,29.92
2023-02-14T00:13:28.591Z,35.00
2023-02-14T00:16:02.618Z,28.45
2023-02-14T00:18:48.002Z,32.28
2023-02-14T00:21:21.640Z,29.65
2023-02-14T00:23:48.490Z,28.88
2023-02-14T00:26:21.617Z,27.30
2023-02-14T00:28:48.487Z,29.70
2023-02-14T00:31:21.810Z,31.05
2023-02-14T00:33:48.671Z,28.02
2023-02-14T00:36:23.671Z,28.17
2023-02-14T00:38:50.456Z,30.10
2023-02-14T00:41:27.676Z,29.27
2023-02-14T00:43:54.532Z,30.27
2023-02-14T00:46:29.617Z,31.15
2023-02-14T00:48:56.742Z,32.05
2023-02-14T00:51:30.621Z,30.90
2023-02-14T00:53:57.729Z,31.17
2023-02-14T00:56:30.655Z,31.67
2023-02-14T00:58:57.552Z,30.10
2023-02-14T01:01:24.587Z,30.35
2023-02-14T01:03:57.645Z,32.83
2023-02-14T01:06:31.711Z,33.17
2023-02-14T01:09:04.628Z,27.92
2023-02-14T01:11:31.431Z,32.10
2023-02-14T01:14:05.648Z,28.70
2023-02-14T01:16:32.576Z,30.80
2023-02-14T01:19:07.710Z,30.13
2023-02-14T01:21:35.571Z,29.00
2023-02-14T01:24:05.720Z,28.83
2023-02-14T01:26:39.698Z,28.88
2023-02-14T01:29:06.914Z,30.27
2023-02-14T01:31:41.777Z,30.73
2023-02-14T01:34:14.696Z,30.35
2023-02-14T01:36:47.719Z,28.67
2023-02-14T01:39:15.741Z,28.40
2023-02-14T01:41:51.712Z,26.95
2023-02-14T01:44:24.716Z,28.42
2023-02-14T01:46:57.718Z,28.60
2023-02-14T01:49:35.707Z,34.67
2023-02-14T01:52:23.773Z,27.45
2023-02-14T01:55:08.694Z,32.88
2023-02-14T01:57:49.744Z,30.45
2023-02-14T02:00:41.774Z,30.23
2023-02-14T02:03:09.184Z,31.90
2023-02-14T02:05:47.831Z,29.30
2023-02-14T02:08:14.988Z,31.60
2023-02-14T02:10:48.783Z,31.23
2023-02-14T02:13:21.299Z,29.92
2023-02-14T02:16:32.829Z,30.08
2023-02-14T02:19:53.759Z,29.83
2023-02-14T02:22:32.536Z,30.33
2023-02-14T02:25:13.765Z,30.80
2023-02-14T02:28:24.853Z,31.67
2023-02-14T02:30:57.776Z,32.28
2023-02-14T02:33:52.800Z,29.98
2023-02-14T02:36:52.141Z,31.95
2023-02-14T02:39:43.759Z,30.10
2023-02-14T02:42:26.837Z,29.73
2023-02-14T02:45:14.825Z,30.80
2023-02-14T02:47:53.646Z,29.17
2023-02-14T02:51:04.782Z,28.90
2023-02-14T02:53:50.795Z,30.40
2023-02-14T02:56:50.984Z,26.23
2023-02-14T02:59:24.336Z,27.13
2023-02-14T03:02:01.855Z,29.42
2023-02-14T03:05:02.903Z,29.83
2023-02-14T03:07:47.859Z,30.30
2023-02-14T03:10:24.270Z,31.50
2023-02-14T03:13:15.911Z,28.98
2023-02-14T03:16:30.371Z,28.80
2023-02-14T03:20:03.910Z,28.77
2023-02-14T03:23:10.873Z,29.65
2023-02-14T03:25:53.887Z,29.58
2023-02-14T03:28:44.896Z,26.90
2023-02-14T03:31:45.970Z,31.20
2023-02-14T03:34:28.267Z,30.40
2023-02-14T03:37:08.001Z,27.60
2023-02-14T03:39:45.926Z,27.42
2023-02-14T03:42:49.937Z,25.02
2023-02-14T03:45:36.940Z,27.92
2023-02-14T03:48:15.962Z,27.65
2023-02-14T03:50:47.833Z,26.25
2023-02-14T03:53:25.944Z,26.60
2023-02-14T03:56:22.348Z,27.67
2023-02-14T03:59:00.970Z,27.02
2023-02-14T04:01:34.870Z,26.83
2023-02-14T04:04:10.930Z,27.67
2023-02-14T04:06:37.713Z,26.48
2023-02-14T04:09:11.174Z,27.88
2023-02-14T04:11:38.628Z,26.67
2023-02-14T04:14:12.953Z,24.38
2023-02-14T04:16:58.360Z,26.10
2023-02-14T04:19:32.017Z,23.60
2023-02-14T04:21:58.820Z,23.05
2023-02-14T04:24:32.029Z,25.17
2023-02-14T04:27:16.641Z,24.90
2023-02-14T04:29:56.060Z,24.13
2023-02-14T04:32:30.075Z,24.55
2023-02-14T04:34:56.938Z,24.67
2023-02-14T04:37:36.022Z,23.10
2023-02-14T04:40:10.114Z,22.92
2023-02-14T04:42:36.891Z,22.70
2023-02-14T04:45:10.013Z,23.50
2023-02-14T04:47:44.072Z,24.23
2023-02-14T04:50:11.137Z,26.08
2023-02-14T04:52:37.960Z,23.45
2023-02-14T04:55:13.028Z,24.90
2023-02-14T04:57:47.105Z,23.13
2023-02-14T05:00:14.900Z,23.40
2023-02-14T05:02:48.037Z,23.30
2023-02-14T05:05:23.072Z,23.45
2023-02-14T05:07:49.845Z,21.13
2023-02-14T05:10:16.781Z,23.75
2023-02-14T05:12:50.087Z,22.65
2023-02-14T05:15:16.936Z,20.88
2023-02-14T05:17:50.059Z,23.40
2023-02-14T05:20:24.047Z,20.63
2023-02-14T05:22:57.013Z,23.38
2023-02-14T05:25:30.131Z,25.00
2023-02-14T05:28:04.052Z,26.95
2023-02-14T05:30:37.267Z,24.25
2023-02-14T05:33:10.852Z,26.08
2023-02-14T05:35:44.072Z,25.17
2023-02-14T05:38:20.102Z,25.17
2023-02-14T05:40:47.057Z,23.10
2023-02-14T05:43:13.913Z,22.23
2023-02-14T05:45:47.164Z,23.50
2023-02-14T05:48:14.175Z,22.08
2023-02-14T05:50:49.123Z,26.98
2023-02-14T05:53:16.379Z,25.98
2023-02-14T05:55:50.108Z,23.15
2023-02-14T05:58:16.885Z,22.02
2023-02-14T06:00:50.104Z,24.40
2023-02-14T06:03:17.040Z,26.42
2023-02-14T06:05:55.128Z,27.63
2023-02-14T06:08:21.925Z,25.95
2023-02-14T06:10:55.205Z,25.63
2023-02-14T06:13:22.558Z,24.70
2023-02-14T06:15:49.305Z,26.48
2023-02-14T06:18:22.178Z,26.13
2023-02-14T06:20:48.990Z,27.42
2023-02-14T06:23:15.837Z,26.85
2023-02-14T06:25:49.168Z,24.48
2023-02-14T06:28:16.074Z,29.08
2023-02-14T06:30:49.240Z,23.67
2023-02-14T06:33:22.172Z,27.10
2023-02-14T06:35:55.221Z,26.90
2023-02-14T06:38:28.126Z,27.27
2023-02-14T06:40:54.914Z,26.90
2023-02-14T06:43:28.166Z,25.80
2023-02-14T06:45:56.622Z,23.73
2023-02-14T06:48:30.174Z,23.75
2023-02-14T06:50:57.252Z,25.27
2023-02-14T06:53:31.195Z,23.88
2023-02-14T06:55:58.204Z,25.20
2023-02-14T06:58:31.177Z,24.13
2023-02-14T07:01:05.278Z,24.02
2023-02-14T07:03:41.198Z,26.77
2023-02-14T07:06:08.104Z,28.52
2023-02-14T07:08:41.234Z,27.50
2023-02-14T07:11:08.184Z,24.00
2023-02-14T07:13:41.226Z,25.48
2023-02-14T07:16:08.080Z,26.42
2023-02-14T07:18:34.947Z,23.70
2023-02-14T07:21:08.285Z,24.80
2023-02-14T07:23:42.232Z,25.83
2023-02-14T07:26:09.148Z,25.73
2023-02-14T07:28:44.311Z,23.75
2023-02-14T07:31:19.341Z,23.55
2023-02-14T07:33:46.219Z,22.00
2023-02-14T07:36:19.247Z,23.92
2023-02-14T07:38:46.098Z,24.90
2023-02-14T07:41:19.298Z,24.33
2023-02-14T07:43:52.272Z,22.30
2023-02-14T07:46:19.318Z,22.50
2023-02-14T07:48:46.190Z,23.00
2023-02-14T07:51:19.357Z,23.10
2023-02-14T07:53:46.190Z,21.70
2023-02-14T07:56:12.989Z,22.50
2023-02-14T07:58:53.331Z,25.90
2023-02-14T08:01:21.108Z,21.08
2023-02-14T08:03:58.275Z,22.88
2023-02-14T08:06:27.742Z,22.83
2023-02-14T08:08:54.562Z,22.38
2023-02-14T08:11:46.325Z,22.05
2023-02-14T08:14:13.199Z,22.27
2023-02-14T08:16:40.146Z,22.17
2023-02-14T08:19:13.420Z,24.90
2023-02-14T08:21:40.276Z,21.98
2023-02-14T08:24:13.384Z,21.17
2023-02-14T08:26:40.185Z,20.80
2023-02-14T08:29:14.994Z,23.63
2023-02-14T08:31:43.203Z,21.30
2023-02-14T08:34:16.637Z,20.90
2023-02-14T08:36:50.383Z,20.75
2023-02-14T08:39:17.202Z,24.13
2023-02-14T08:41:50.349Z,22.98
2023-02-14T08:44:17.157Z,20.40
2023-02-14T08:46:43.977Z,20.10
2023-02-14T08:49:17.566Z,20.00
2023-02-14T08:51:51.371Z,19.60
2023-02-14T08:54:18.164Z,19.90
2023-02-14T08:56:51.416Z,18.67
2023-02-14T08:59:18.224Z,18.90
2023-02-14T09:01:51.417Z,17.52
2023-02-14T09:04:24.435Z,22.08
2023-02-14T09:06:57.464Z,19.42
2023-02-14T09:09:24.266Z,25.17
2023-02-14T09:11:57.453Z,28.33
2023-02-14T09:14:32.177Z,29.00
2023-02-14T09:17:08.466Z,27.92
2023-02-14T09:19:36.996Z,26.30
2023-02-14T09:22:05.344Z,22.13
2023-02-14T09:24:39.684Z,22.05
2023-02-14T09:27:07.140Z,23.20
2023-02-14T09:29:34.653Z,26.33
2023-02-14T09:32:09.513Z,23.73
2023-02-14T09:34:45.432Z,28.90
2023-02-14T09:37:38.458Z,27.00
2023-02-14T09:40:06.013Z,30.48
2023-02-14T09:43:05.491Z,26.15
2023-02-14T09:45:40.530Z,31.25
2023-02-14T09:48:37.522Z,26.40
2023-02-14T09:51:21.441Z,23.10
2023-02-14T09:53:56.974Z,20.27
2023-02-14T09:56:51.326Z,21.55
2023-02-14T09:59:50.345Z,19.65
2023-02-14T10:02:23.790Z,19.98
2023-02-14T10:05:13.278Z,19.67
2023-02-14T10:08:31.536Z,25.17
2023-02-14T10:11:08.846Z,20.95
2023-02-14T10:13:58.716Z,27.10
2023-02-14T10:16:40.519Z,26.75
2023-02-14T10:19:19.487Z,23.98
2023-02-14T10:21:56.728Z,28.67
2023-02-14T10:24:48.695Z,21.00
2023-02-14T10:27:46.568Z,23.83
2023-02-14T10:30:30.666Z,19.88
2023-02-14T10:33:11.796Z,23.65
2023-02-14T10:35:49.554Z,26.90
2023-02-14T10:38:49.580Z,25.90
2023-02-14T10:41:35.294Z,19.20
2023-02-14T10:44:32.587Z,22.92
2023-02-14T10:47:02.212Z,28.88
2023-02-14T10:49:44.730Z,21.90
2023-02-14T10:52:18.697Z,23.73
2023-02-14T10:55:02.562Z,25.27
2023-02-14T10:57:33.974Z,26.80
2023-02-14T11:00:11.784Z,26.70
2023-02-14T11:02:46.151Z,32.20
2023-02-14T11:07:59.100Z,35.13
2023-02-14T11:10:39.605Z,31.88
2023-02-14T11:13:43.594Z,34.63
2023-02-14T11:16:13.478Z,31.08
2023-02-14T11:18:47.897Z,36.88
2023-02-14T11:21:17.876Z,34.00
2023-02-14T11:23:57.628Z,38.60
2023-02-14T11:26:28.050Z,41.22
2023-02-14T11:29:07.611Z,42.00
2023-02-14T11:31:37.745Z,42.60
2023-02-14T11:34:22.664Z,39.10
2023-02-14T11:36:55.612Z,44.28
2023-02-14T11:39:42.641Z,34.72
2023-02-14T11:42:19.666Z,37.38
2023-02-14T11:45:02.625Z,33.55
2023-02-14T11:47:32.358Z,27.10
2023-02-14T11:50:12.693Z,25.83
2023-02-14T11:52:52.012Z,30.75
2023-02-14T11:55:35.642Z,27.85
2023-02-14T11:58:05.872Z,27.35
2023-02-14T12:00:40.680Z,26.42
2023-02-14T12:03:18.580Z,23.08
2023-02-14T12:05:55.702Z,21.17
2023-02-14T12:08:28.392Z,20.83
2023-02-14T12:11:29.975Z,24.95
2023-02-14T12:13:58.105Z,21.95
2023-02-14T12:16:55.685Z,18.88
2023-02-14T12:19:44.759Z,27.05
2023-02-14T12:22:41.778Z,23.90
2023-02-14T12:25:33.320Z,25.20
2023-02-14T12:28:13.733Z,26.42
2023-02-14T12:30:41.308Z,27.27
2023-02-14T12:33:26.769Z,27.00
2023-02-14T12:36:11.663Z,25.25
2023-02-14T12:39:09.865Z,22.80
2023-02-14T12:41:54.998Z,18.55
2023-02-14T12:44:36.745Z,21.75
2023-02-14T12:47:33.786Z,17.30
2023-02-14T12:50:18.548Z,24.10
2023-02-14T12:53:04.090Z,18.08
2023-02-14T12:56:09.238Z,18.25
2023-02-14T12:59:14.862Z,18.58
2023-02-14T13:01:59.519Z,18.20
2023-02-14T13:04:40.841Z,19.08
2023-02-14T13:07:26.726Z,19.98
2023-02-14T13:10:24.788Z,21.63
2023-02-14T13:13:35.006Z,22.95
2023-02-14T13:16:17.866Z,19.52
2023-02-14T13:19:37.836Z,16.23
2023-02-14T13:22:06.962Z,15.05
2023-02-14T13:24:48.894Z,15.98
2023-02-14T13:27:23.324Z,18.05
2023-02-14T13:30:05.827Z,16.15
2023-02-14T13:35:03.913Z,16.02
2023-02-14T13:37:37.820Z,16.10
2023-02-14T13:40:23.824Z,17.63
2023-02-14T13:42:53.413Z,19.05
2023-02-14T13:45:45.847Z,19.52
2023-02-14T13:48:22.400Z,20.40
2023-02-14T13:51:10.801Z,18.58
2023-02-14T13:53:46.657Z,17.17
2023-02-14T13:56:19.951Z,25.15
2023-02-14T13:58:56.360Z,20.02
2023-02-14T14:01:48.896Z,30.38
2023-02-14T14:04:31.908Z,19.73
2023-02-14T14:07:11.878Z,19.85
2023-02-14T14:09:45.450Z,21.27
2023-02-14T14:12:34.230Z,22.92
2023-02-14T14:15:07.009Z,15.45
2023-02-14T14:17:43.941Z,21.83
2023-02-14T14:20:16.815Z,20.63
2023-02-14T14:22:55.952Z,24.73
2023-02-14T14:25:33.430Z,22.10
2023-02-14T14:28:07.865Z,22.45
2023-02-14T14:30:35.073Z,20.50
2023-02-14T14:33:37.899Z,23.58
2023-02-14T14:38:53.994Z,18.45
2023-02-14T14:41:38.105Z,21.17
2023-02-14T14:44:06.733Z,18.17
2023-02-14T14:46:33.939Z,22.35
2023-02-14T14:49:08.950Z,22.63
2023-02-14T14:51:36.174Z,23.65
2023-02-14T14:54:13.983Z,26.05
2023-02-14T14:57:01.542Z,17.83
2023-02-14T14:59:41.946Z,25.30
2023-02-14T15:02:24.456Z,17.33
2023-02-14T15:07:39.941Z,18.92
2023-02-14T15:10:34.984Z,14.45
2023-02-14T15:13:26.997Z,15.68
2023-02-14T15:16:03.492Z,14.23
2023-02-14T15:18:30.810Z,16.48
2023-02-14T15:21:06.025Z,11.95
2023-02-14T15:23:33.329Z,14.43
2023-02-14T15:26:07.997Z,11.40
2023-02-14T15:28:38.464Z,17.92
2023-02-14T15:31:13.099Z,12.32
2023-02-14T15:33:40.159Z,15.35
2023-02-14T15:36:23.012Z,18.15
2023-02-14T15:38:50.955Z,29.50
2023-02-14T15:41:20.021Z,26.50
2023-02-14T15:43:58.053Z,22.33
2023-02-14T15:46:26.485Z,18.15
2023-02-14T15:49:02.356Z,23.58
2023-02-14T15:51:32.697Z,19.90
2023-02-14T15:54:01.408Z,18.15
2023-02-14T15:56:43.094Z,15.75
2023-02-14T15:59:23.552Z,11.87
2023-02-14T16:02:10.172Z,17.65
2023-02-14T16:04:36.998Z,15.13
2023-02-14T16:07:06.839Z,17.55
2023-02-14T16:09:44.316Z,16.38
2023-02-14T16:12:32.144Z,15.80
2023-02-14T16:15:28.121Z,17.83
2023-02-14T16:18:07.906Z,19.15
2023-02-14T16:20:48.263Z,20.95
2023-02-14T16:23:25.906Z,24.08
2023-02-14T16:26:00.107Z,20.10
2023-02-14T16:28:37.093Z,20.27
2023-02-14T16:31:10.177Z,22.17
2023-02-14T16:33:46.111Z,20.50
2023-02-14T16:36:37.106Z,18.92
2023-02-14T16:39:05.581Z,22.13
2023-02-14T16:41:34.273Z,21.83
2023-02-14T16:44:08.170Z,21.52
2023-02-14T16:46:36.176Z,19.85
2023-02-14T16:49:10.143Z,20.77
2023-02-14T16:51:37.373Z,20.30
2023-02-14T16:54:06.873Z,20.25
2023-02-14T16:56:45.101Z,19.30
2023-02-14T16:59:12.077Z,17.65
2023-02-14T17:01:38.942Z,17.88
2023-02-14T17:04:12.231Z,18.70
2023-02-14T17:06:42.502Z,18.90
2023-02-14T17:09:20.148Z,18.80
2023-02-14T17:11:58.206Z,17.65
2023-02-14T17:14:30.049Z,24.00
2023-02-14T17:19:41.176Z,19.55
2023-02-14T17:22:08.052Z,24.55
2023-02-14T17:24:35.817Z,21.77
2023-02-14T17:27:09.523Z,22.70
2023-02-14T17:29:36.332Z,21.67
2023-02-14T17:32:10.222Z,23.75
2023-02-14T17:34:37.097Z,29.65
2023-02-14T17:37:10.270Z,26.45
2023-02-14T17:39:37.046Z,22.85
2023-02-14T17:42:12.187Z,21.08
2023-02-14T17:44:46.207Z,27.30
2023-02-14T17:47:14.762Z,25.00
2023-02-14T17:49:48.251Z,28.25
2023-02-14T17:52:16.208Z,26.50
2023-02-14T17:54:43.670Z,25.55
2023-02-14T17:57:19.477Z,27.95
2023-02-14T17:59:53.240Z,26.55
2023-02-14T18:02:20.163Z,27.65
2023-02-14T18:04:48.362Z,27.50
2023-02-14T18:07:27.267Z,28.23
2023-02-14T18:09:54.100Z,31.55
2023-02-14T18:12:27.270Z,26.52
2023-02-14T18:15:02.269Z,25.77
2023-02-14T18:17:29.028Z,29.10
2023-02-14T18:20:02.280Z,26.95
2023-02-14T18:22:38.230Z,30.45
2023-02-14T18:25:09.973Z,29.40
2023-02-14T18:27:43.279Z,28.13
2023-02-14T18:30:17.390Z,24.48
2023-02-14T18:32:44.164Z,26.10
2023-02-14T18:35:17.352Z,26.08
2023-02-14T18:37:44.241Z,25.10
2023-02-14T18:40:16.328Z,25.58
2023-02-14T18:42:49.317Z,27.33
2023-02-14T18:45:23.340Z,23.65
2023-02-14T18:47:50.578Z,27.38
2023-02-14T18:50:24.316Z,23.33
2023-02-14T18:52:51.180Z,24.90
2023-02-14T18:55:24.301Z,25.83
2023-02-14T18:58:24.375Z,26.80
2023-02-14T19:00:58.450Z,23.40
2023-02-14T19:03:25.625Z,24.13
2023-02-14T19:06:00.418Z,24.98
2023-02-14T19:08:29.974Z,24.80
2023-02-14T19:11:03.485Z,26.00
2023-02-14T19:13:32.727Z,25.25
2023-02-14T19:16:06.444Z,24.45
2023-02-14T19:18:33.278Z,24.13
2023-02-14T19:21:22.394Z,24.83
2023-02-14T19:23:57.441Z,23.80
2023-02-14T19:26:33.481Z,24.67
2023-02-14T19:29:02.407Z,33.50
2023-02-14T19:31:36.668Z,26.63
2023-02-14T19:34:05.153Z,24.75
2023-02-14T19:36:39.473Z,29.05
2023-02-14T19:39:13.463Z,29.13
2023-02-14T19:41:47.687Z,28.52
2023-02-14T19:44:17.252Z,31.50
2023-02-14T19:46:52.486Z,26.90
2023-02-14T19:49:20.572Z,27.67
2023-02-14T19:51:55.564Z,25.83
2023-02-14T19:54:24.204Z,25.80
2023-02-14T19:57:00.510Z,32.33
2023-02-14T19:59:27.964Z,26.65
2023-02-14T20:02:02.738Z,26.98
2023-02-14T20:04:30.212Z,28.65
2023-02-14T20:07:04.577Z,28.50
2023-02-14T20:09:37.526Z,27.40
2023-02-14T20:12:11.547Z,29.75
2023-02-14T20:14:51.405Z,27.95
2023-02-14T20:17:19.423Z,28.95
2023-02-14T20:19:53.567Z,25.50
2023-02-14T20:22:23.112Z,26.98
2023-02-14T20:24:56.499Z,24.67
2023-02-14T20:27:25.542Z,27.13
2023-02-14T20:29:58.549Z,23.55
2023-02-14T20:32:25.319Z,24.88
2023-02-14T20:34:58.897Z,27.30
2023-02-14T20:37:25.961Z,24.15
2023-02-14T20:39:54.865Z,31.75
2023-02-14T20:42:28.548Z,26.77
2023-02-14T20:44:55.387Z,26.42
2023-02-14T20:47:22.194Z,27.33
2023-02-14T20:49:56.559Z,28.15
2023-02-14T20:52:23.424Z,25.98
2023-02-14T20:54:50.183Z,25.80
2023-02-14T20:57:23.617Z,27.50
2023-02-14T20:59:50.446Z,29.50
2023-02-14T21:02:23.600Z,30.65
2023-02-14T21:04:50.366Z,24.80
2023-02-14T21:07:24.581Z,28.15
2023-02-14T21:09:51.316Z,27.23
2023-02-14T21:12:24.621Z,29.30
2023-02-14T21:14:58.614Z,29.50
2023-02-14T21:17:31.590Z,26.23
2023-02-14T21:19:58.383Z,25.77
2023-02-14T21:22:38.586Z,29.00
2023-02-14T21:25:05.800Z,26.85
2023-02-14T21:27:39.650Z,27.73
2023-02-14T21:30:13.688Z,25.88
2023-02-14T21:32:40.491Z,23.17
2023-02-14T21:35:13.650Z,28.58
2023-02-14T21:37:40.396Z,25.95
2023-02-14T21:40:14.652Z,25.67
2023-02-14T21:42:48.620Z,26.70
2023-02-14T21:45:40.668Z,22.25
2023-02-14T21:48:32.633Z,26.27
2023-02-14T21:51:06.608Z,27.10
2023-02-14T21:53:34.117Z,24.27
2023-02-14T21:56:17.985Z,20.83
2023-02-14T21:58:51.663Z,22.95
2023-02-14T22:01:24.695Z,22.55
2023-02-14T22:03:58.635Z,22.73
2023-02-14T22:06:32.692Z,23.30
2023-02-14T22:09:09.713Z,24.70
2023-02-14T22:11:36.944Z,28.30
2023-02-14T22:14:04.125Z,24.23
2023-02-14T22:16:37.716Z,25.65
2023-02-14T22:19:12.732Z,23.52
2023-02-14T22:21:39.598Z,26.23
2023-02-14T22:24:06.438Z,23.95
2023-02-14T22:26:44.716Z,24.67
2023-02-14T22:29:12.751Z,27.15
2023-02-14T22:31:48.806Z,26.02
2023-02-14T22:34:24.773Z,26.95
2023-02-14T22:36:51.675Z,26.15
2023-02-14T22:39:18.615Z,27.95
2023-02-14T22:41:52.687Z,30.52
2023-02-14T22:44:19.428Z,29.98
2023-02-14T22:46:55.802Z,30.00
2023-02-14T22:49:22.626Z,34.95
2023-02-14T22:51:49.442Z,33.78
2023-02-14T22:54:23.731Z,33.13
2023-02-14T22:56:53.550Z,28.63
2023-02-14T22:59:34.772Z,29.92
2023-02-14T23:02:08.771Z,30.13
2023-02-14T23:04:50.759Z,31.38
2023-02-14T23:07:17.500Z,30.30
2023-02-14T23:09:50.789Z,29.50
2023-02-14T23:12:42.806Z,30.80
2023-02-14T23:15:29.172Z,28.42
2023-02-14T23:18:20.819Z,28.83
2023-02-14T23:21:06.202Z,30.08
2023-02-14T23:23:40.806Z,33.22
2023-02-14T23:26:07.606Z,29.30
2023-02-14T23:28:34.589Z,31.25
2023-02-14T23:31:08.882Z,31.77
2023-02-14T23:33:36.225Z,30.80
2023-02-14T23:36:04.339Z,28.55
2023-02-14T23:38:37.830Z,30.88
2023-02-14T23:41:30.272Z,30.45
2023-02-14T23:44:03.860Z,33.45
2023-02-14T23:46:31.943Z,31.75
2023-02-14T23:49:04.852Z,35.40
2023-02-14T23:51:37.858Z,32.20
2023-02-14T23:54:05.197Z,32.95
2023-02-14T23:56:39.869Z,31.25
2023-02-14T23:59:13.834Z,31.95
